sensor_id;sensor_type;location;lat;lon;timestamp;P1;durP1;ratioP1;P2;durP2;ratioP2
57790;SDS011;43621;51.798;21.588;2023-01-09T00:01:42;47.50;;;23.90;;
57790;SDS011;43621;51.798;21.588;2023-01-09T00:05:46;50.10;;;24.00;;
57790;SDS011;43621;51.798;21.588;2023-01-09T00:09:48;55.40;;;26.20;;
57790;SDS011;43621;51.798;21.588;2023-01-09T00:13:50;48.40;;;22.30;;
57790;SDS011;43621;51.798;21.588;2023-01-09T00:17:52;48.70;;;23.90;;
57790;SDS011;43621;51.798;21.588;2023-01-09T00:21:54;40.10;;;20.50;;
57790;SDS011;43621;51.798;21.588;2023-01-09T00:30:20;42.20;;;22.10;;
57790;SDS011;43621;51.798;21.588;2023-01-09T00:34:21;48.20;;;22.30;;
57790;SDS011;43621;51.798;21.588;2023-01-09T00:38:24;42.20;;;21.40;;
57790;SDS011;43621;51.798;21.588;2023-01-09T00:42:27;45.40;;;23.10;;
57790;SDS011;43621;51.798;21.588;2023-01-09T00:46:33;43.20;;;21.10;;
57790;SDS011;43621;51.798;21.588;2023-01-09T00:50:38;42.30;;;22.00;;
57790;SDS011;43621;51.798;21.588;2023-01-09T00:54:40;45.30;;;21.90;;
57790;SDS011;43621;51.798;21.588;2023-01-09T00:58:44;41.10;;;21.80;;
57790;SDS011;43621;51.798;21.588;2023-01-09T01:02:46;48.00;;;23.90;;
57790;SDS011;43621;51.798;21.588;2023-01-09T01:06:48;44.80;;;22.70;;
57790;SDS011;43621;51.798;21.588;2023-01-09T01:11:09;44.70;;;23.30;;
57790;SDS011;43621;51.798;21.588;2023-01-09T01:15:10;48.90;;;22.40;;
57790;SDS011;43621;51.798;21.588;2023-01-09T01:19:13;42.20;;;22.70;;
57790;SDS011;43621;51.798;21.588;2023-01-09T01:23:15;42.10;;;22.00;;
57790;SDS011;43621;51.798;21.588;2023-01-09T01:27:17;42.60;;;22.30;;
57790;SDS011;43621;51.798;21.588;2023-01-09T01:31:19;41.90;;;19.90;;
57790;SDS011;43621;51.798;21.588;2023-01-09T01:35:21;47.30;;;23.00;;
57790;SDS011;43621;51.798;21.588;2023-01-09T01:39:23;38.80;;;19.60;;
57790;SDS011;43621;51.798;21.588;2023-01-09T01:43:25;41.30;;;21.00;;
57790;SDS011;43621;51.798;21.588;2023-01-09T01:47:32;40.40;;;20.20;;
57790;SDS011;43621;51.798;21.588;2023-01-09T01:51:53;33.90;;;18.50;;
57790;SDS011;43621;51.798;21.588;2023-01-09T01:59:59;39.20;;;20.20;;
57790;SDS011;43621;51.798;21.588;2023-01-09T02:04:03;36.90;;;18.90;;
57790;SDS011;43621;51.798;21.588;2023-01-09T02:08:06;44.20;;;21.90;;
57790;SDS011;43621;51.798;21.588;2023-01-09T02:12:16;38.60;;;19.70;;
57790;SDS011;43621;51.798;21.588;2023-01-09T02:16:51;40.60;;;19.20;;
57790;SDS011;43621;51.798;21.588;2023-01-09T02:38:46;34.40;;;19.30;;
57790;SDS011;43621;51.798;21.588;2023-01-09T02:42:56;39.90;;;20.80;;
57790;SDS011;43621;51.798;21.588;2023-01-09T03:00:26;35.20;;;17.40;;
57790;SDS011;43621;51.798;21.588;2023-01-09T03:09:23;33.10;;;17.40;;
57790;SDS011;43621;51.798;21.588;2023-01-09T03:13:29;36.10;;;21.30;;
57790;SDS011;43621;51.798;21.588;2023-01-09T03:17:38;30.70;;;18.50;;
57790;SDS011;43621;51.798;21.588;2023-01-09T03:25:47;32.00;;;16.20;;
57790;SDS011;43621;51.798;21.588;2023-01-09T03:29:49;35.60;;;19.00;;
57790;SDS011;43621;51.798;21.588;2023-01-09T03:33:53;38.90;;;20.50;;
57790;SDS011;43621;51.798;21.588;2023-01-09T03:37:55;42.30;;;21.20;;
57790;SDS011;43621;51.798;21.588;2023-01-09T03:41:59;37.50;;;19.40;;
57790;SDS011;43621;51.798;21.588;2023-01-09T03:46:01;36.60;;;18.10;;
57790;SDS011;43621;51.798;21.588;2023-01-09T03:50:12;30.70;;;17.00;;
57790;SDS011;43621;51.798;21.588;2023-01-09T03:54:14;38.10;;;19.70;;
57790;SDS011;43621;51.798;21.588;2023-01-09T03:58:16;39.00;;;18.70;;
57790;SDS011;43621;51.798;21.588;2023-01-09T04:02:19;40.60;;;19.50;;
57790;SDS011;43621;51.798;21.588;2023-01-09T04:06:21;29.30;;;17.60;;
57790;SDS011;43621;51.798;21.588;2023-01-09T04:10:23;36.40;;;19.70;;
57790;SDS011;43621;51.798;21.588;2023-01-09T04:14:25;49.10;;;25.00;;
57790;SDS011;43621;51.798;21.588;2023-01-09T04:18:27;34.00;;;19.20;;
57790;SDS011;43621;51.798;21.588;2023-01-09T04:22:29;29.20;;;15.70;;
57790;SDS011;43621;51.798;21.588;2023-01-09T04:26:31;30.90;;;16.90;;
57790;SDS011;43621;51.798;21.588;2023-01-09T04:30:33;29.20;;;15.10;;
57790;SDS011;43621;51.798;21.588;2023-01-09T04:34:35;34.50;;;18.00;;
57790;SDS011;43621;51.798;21.588;2023-01-09T04:38:37;32.60;;;17.70;;
57790;SDS011;43621;51.798;21.588;2023-01-09T04:42:39;27.40;;;15.20;;
57790;SDS011;43621;51.798;21.588;2023-01-09T04:46:41;30.50;;;16.80;;
57790;SDS011;43621;51.798;21.588;2023-01-09T04:50:43;37.30;;;18.40;;
57790;SDS011;43621;51.798;21.588;2023-01-09T04:54:45;35.10;;;18.40;;
57790;SDS011;43621;51.798;21.588;2023-01-09T04:58:46;31.00;;;16.80;;
57790;SDS011;43621;51.798;21.588;2023-01-09T05:02:48;32.00;;;18.50;;
57790;SDS011;43621;51.798;21.588;2023-01-09T05:06:50;32.40;;;18.40;;
57790;SDS011;43621;51.798;21.588;2023-01-09T05:10:52;28.40;;;15.80;;
57790;SDS011;43621;51.798;21.588;2023-01-09T05:14:54;27.80;;;16.00;;
57790;SDS011;43621;51.798;21.588;2023-01-09T05:18:58;30.60;;;16.00;;
57790;SDS011;43621;51.798;21.588;2023-01-09T05:23:00;31.20;;;17.10;;
57790;SDS011;43621;51.798;21.588;2023-01-09T05:27:02;31.10;;;17.60;;
57790;SDS011;43621;51.798;21.588;2023-01-09T05:31:04;29.70;;;15.70;;
57790;SDS011;43621;51.798;21.588;2023-01-09T05:35:06;31.30;;;17.40;;
57790;SDS011;43621;51.798;21.588;2023-01-09T05:39:08;28.30;;;16.50;;
57790;SDS011;43621;51.798;21.588;2023-01-09T05:43:11;33.30;;;17.60;;
57790;SDS011;43621;51.798;21.588;2023-01-09T05:47:13;29.80;;;15.80;;
57790;SDS011;43621;51.798;21.588;2023-01-09T05:51:15;28.50;;;16.60;;
57790;SDS011;43621;51.798;21.588;2023-01-09T05:55:17;31.50;;;17.50;;
57790;SDS011;43621;51.798;21.588;2023-01-09T05:59:18;30.60;;;17.90;;
57790;SDS011;43621;51.798;21.588;2023-01-09T06:03:20;31.20;;;17.60;;
57790;SDS011;43621;51.798;21.588;2023-01-09T06:07:22;34.60;;;20.00;;
57790;SDS011;43621;51.798;21.588;2023-01-09T06:11:24;30.90;;;17.50;;
57790;SDS011;43621;51.798;21.588;2023-01-09T06:15:25;40.00;;;21.60;;
57790;SDS011;43621;51.798;21.588;2023-01-09T06:19:27;36.40;;;19.20;;
57790;SDS011;43621;51.798;21.588;2023-01-09T06:23:29;26.20;;;14.60;;
57790;SDS011;43621;51.798;21.588;2023-01-09T06:27:32;29.80;;;18.00;;
57790;SDS011;43621;51.798;21.588;2023-01-09T06:31:34;27.90;;;16.90;;
57790;SDS011;43621;51.798;21.588;2023-01-09T06:35:36;27.50;;;15.70;;
57790;SDS011;43621;51.798;21.588;2023-01-09T06:39:38;28.60;;;17.40;;
57790;SDS011;43621;51.798;21.588;2023-01-09T06:43:39;28.60;;;17.60;;
57790;SDS011;43621;51.798;21.588;2023-01-09T06:47:41;29.20;;;16.50;;
57790;SDS011;43621;51.798;21.588;2023-01-09T06:51:43;36.10;;;21.10;;
57790;SDS011;43621;51.798;21.588;2023-01-09T06:55:45;37.50;;;20.40;;
57790;SDS011;43621;51.798;21.588;2023-01-09T06:59:47;39.90;;;19.80;;
57790;SDS011;43621;51.798;21.588;2023-01-09T07:03:49;27.30;;;17.20;;
57790;SDS011;43621;51.798;21.588;2023-01-09T07:07:51;28.50;;;16.40;;
57790;SDS011;43621;51.798;21.588;2023-01-09T07:11:53;28.00;;;16.10;;
57790;SDS011;43621;51.798;21.588;2023-01-09T07:15:56;34.90;;;19.40;;
57790;SDS011;43621;51.798;21.588;2023-01-09T07:19:58;32.90;;;19.60;;
57790;SDS011;43621;51.798;21.588;2023-01-09T07:24:01;35.90;;;19.80;;
57790;SDS011;43621;51.798;21.588;2023-01-09T07:28:02;29.90;;;17.80;;
57790;SDS011;43621;51.798;21.588;2023-01-09T07:32:05;31.40;;;18.80;;
57790;SDS011;43621;51.798;21.588;2023-01-09T07:36:08;31.90;;;18.80;;
57790;SDS011;43621;51.798;21.588;2023-01-09T07:40:10;35.30;;;19.40;;
57790;SDS011;43621;51.798;21.588;2023-01-09T07:44:14;34.10;;;20.40;;
57790;SDS011;43621;51.798;21.588;2023-01-09T07:48:16;35.60;;;21.80;;
57790;SDS011;43621;51.798;21.588;2023-01-09T07:52:17;36.60;;;22.00;;
57790;SDS011;43621;51.798;21.588;2023-01-09T07:56:19;37.20;;;21.50;;
57790;SDS011;43621;51.798;21.588;2023-01-09T08:00:22;33.30;;;18.70;;
57790;SDS011;43621;51.798;21.588;2023-01-09T08:04:24;35.40;;;20.70;;
57790;SDS011;43621;51.798;21.588;2023-01-09T08:08:26;38.40;;;21.10;;
57790;SDS011;43621;51.798;21.588;2023-01-09T08:12:28;37.40;;;21.40;;
57790;SDS011;43621;51.798;21.588;2023-01-09T08:16:30;39.50;;;22.60;;
57790;SDS011;43621;51.798;21.588;2023-01-09T08:20:32;32.80;;;19.50;;
57790;SDS011;43621;51.798;21.588;2023-01-09T08:24:34;23.70;;;16.70;;
57790;SDS011;43621;51.798;21.588;2023-01-09T08:28:38;28.80;;;17.70;;
57790;SDS011;43621;51.798;21.588;2023-01-09T08:32:39;26.20;;;17.70;;
57790;SDS011;43621;51.798;21.588;2023-01-09T08:36:41;27.10;;;17.70;;
57790;SDS011;43621;51.798;21.588;2023-01-09T08:40:45;29.10;;;17.60;;
57790;SDS011;43621;51.798;21.588;2023-01-09T08:44:47;27.00;;;17.10;;
57790;SDS011;43621;51.798;21.588;2023-01-09T08:49:08;29.50;;;18.40;;
57790;SDS011;43621;51.798;21.588;2023-01-09T08:53:10;41.10;;;24.80;;
57790;SDS011;43621;51.798;21.588;2023-01-09T08:57:12;108.10;;;60.20;;
57790;SDS011;43621;51.798;21.588;2023-01-09T09:01:14;70.80;;;44.70;;
57790;SDS011;43621;51.798;21.588;2023-01-09T09:05:16;36.70;;;22.40;;
57790;SDS011;43621;51.798;21.588;2023-01-09T09:09:17;37.30;;;25.90;;
57790;SDS011;43621;51.798;21.588;2023-01-09T09:13:19;28.20;;;18.80;;
57790;SDS011;43621;51.798;21.588;2023-01-09T09:17:21;28.50;;;18.90;;
57790;SDS011;43621;51.798;21.588;2023-01-09T09:21:23;28.40;;;18.60;;
57790;SDS011;43621;51.798;21.588;2023-01-09T09:25:25;31.10;;;19.70;;
57790;SDS011;43621;51.798;21.588;2023-01-09T09:29:28;109.10;;;63.30;;
57790;SDS011;43621;51.798;21.588;2023-01-09T09:33:29;54.70;;;40.40;;
57790;SDS011;43621;51.798;21.588;2023-01-09T09:37:31;41.60;;;30.60;;
57790;SDS011;43621;51.798;21.588;2023-01-09T09:46:31;37.60;;;22.80;;
57790;SDS011;43621;51.798;21.588;2023-01-09T09:55:26;40.70;;;23.30;;
57790;SDS011;43621;51.798;21.588;2023-01-09T09:59:33;37.60;;;21.90;;
57790;SDS011;43621;51.798;21.588;2023-01-09T10:03:40;43.60;;;26.40;;
57790;SDS011;43621;51.798;21.588;2023-01-09T10:07:48;34.40;;;23.10;;
57790;SDS011;43621;51.798;21.588;2023-01-09T10:12:09;48.60;;;28.20;;
57790;SDS011;43621;51.798;21.588;2023-01-09T10:24:54;48.10;;;26.40;;
57790;SDS011;43621;51.798;21.588;2023-01-09T10:37:43;37.60;;;22.80;;
57790;SDS011;43621;51.798;21.588;2023-01-09T10:42:01;150.30;;;83.60;;
57790;SDS011;43621;51.798;21.588;2023-01-09T10:46:14;94.00;;;58.20;;
57790;SDS011;43621;51.798;21.588;2023-01-09T10:50:25;132.10;;;80.00;;
57790;SDS011;43621;51.798;21.588;2023-01-09T10:54:31;299.10;;;208.90;;
57790;SDS011;43621;51.798;21.588;2023-01-09T10:58:33;61.10;;;36.50;;
57790;SDS011;43621;51.798;21.588;2023-01-09T11:02:35;64.00;;;34.70;;
57790;SDS011;43621;51.798;21.588;2023-01-09T11:06:39;143.70;;;65.40;;
57790;SDS011;43621;51.798;21.588;2023-01-09T11:10:53;93.80;;;44.60;;
57790;SDS011;43621;51.798;21.588;2023-01-09T11:19:18;111.60;;;52.30;;
57790;SDS011;43621;51.798;21.588;2023-01-09T11:23:25;263.90;;;116.20;;
57790;SDS011;43621;51.798;21.588;2023-01-09T11:27:29;206.30;;;85.20;;
57790;SDS011;43621;51.798;21.588;2023-01-09T11:31:31;71.30;;;35.50;;
57790;SDS011;43621;51.798;21.588;2023-01-09T11:35:35;85.90;;;43.20;;
57790;SDS011;43621;51.798;21.588;2023-01-09T11:39:37;51.80;;;26.70;;
57790;SDS011;43621;51.798;21.588;2023-01-09T11:43:46;74.80;;;37.30;;
57790;SDS011;43621;51.798;21.588;2023-01-09T11:47:51;62.90;;;32.90;;
57790;SDS011;43621;51.798;21.588;2023-01-09T11:52:38;52.90;;;28.50;;
57790;SDS011;43621;51.798;21.588;2023-01-09T11:56:20;47.20;;;25.00;;
57790;SDS011;43621;51.798;21.588;2023-01-09T12:00:24;39.20;;;23.30;;
57790;SDS011;43621;51.798;21.588;2023-01-09T12:08:55;81.20;;;44.10;;
57790;SDS011;43621;51.798;21.588;2023-01-09T12:34:35;34.30;;;21.80;;
57790;SDS011;43621;51.798;21.588;2023-01-09T12:43:18;70.40;;;44.60;;
57790;SDS011;43621;51.798;21.588;2023-01-09T12:47:43;99.00;;;55.60;;
57790;SDS011;43621;51.798;21.588;2023-01-09T12:52:08;76.60;;;39.00;;
57790;SDS011;43621;51.798;21.588;2023-01-09T12:56:17;45.60;;;25.50;;
57790;SDS011;43621;51.798;21.588;2023-01-09T13:00:25;69.30;;;37.70;;
57790;SDS011;43621;51.798;21.588;2023-01-09T13:04:34;86.70;;;39.20;;
57790;SDS011;43621;51.798;21.588;2023-01-09T13:08:54;52.00;;;26.80;;
57790;SDS011;43621;51.798;21.588;2023-01-09T13:13:17;105.00;;;65.60;;
57790;SDS011;43621;51.798;21.588;2023-01-09T13:17:22;61.30;;;39.20;;
57790;SDS011;43621;51.798;21.588;2023-01-09T13:21:28;82.10;;;56.00;;
57790;SDS011;43621;51.798;21.588;2023-01-09T13:29:49;71.50;;;39.90;;
57790;SDS011;43621;51.798;21.588;2023-01-09T13:33:56;60.00;;;35.70;;
57790;SDS011;43621;51.798;21.588;2023-01-09T13:37:59;71.80;;;40.90;;
57790;SDS011;43621;51.798;21.588;2023-01-09T13:42:03;70.50;;;40.70;;
57790;SDS011;43621;51.798;21.588;2023-01-09T13:46:40;61.00;;;38.50;;
57790;SDS011;43621;51.798;21.588;2023-01-09T13:50:45;80.90;;;47.30;;
57790;SDS011;43621;51.798;21.588;2023-01-09T14:02:55;62.20;;;34.30;;
57790;SDS011;43621;51.798;21.588;2023-01-09T14:07:20;141.30;;;66.50;;
57790;SDS011;43621;51.798;21.588;2023-01-09T14:11:24;77.80;;;41.80;;
57790;SDS011;43621;51.798;21.588;2023-01-09T14:15:36;176.10;;;76.90;;
57790;SDS011;43621;51.798;21.588;2023-01-09T14:19:40;73.30;;;39.00;;
57790;SDS011;43621;51.798;21.588;2023-01-09T14:23:47;43.50;;;27.70;;
57790;SDS011;43621;51.798;21.588;2023-01-09T14:36:21;36.40;;;23.10;;
57790;SDS011;43621;51.798;21.588;2023-01-09T14:40:27;36.90;;;22.80;;
57790;SDS011;43621;51.798;21.588;2023-01-09T14:44:33;46.00;;;30.40;;
57790;SDS011;43621;51.798;21.588;2023-01-09T14:48:40;97.60;;;64.00;;
57790;SDS011;43621;51.798;21.588;2023-01-09T14:53:03;37.50;;;24.30;;
57790;SDS011;43621;51.798;21.588;2023-01-09T14:57:25;70.30;;;42.30;;
57790;SDS011;43621;51.798;21.588;2023-01-09T15:01:32;77.60;;;39.00;;
57790;SDS011;43621;51.798;21.588;2023-01-09T15:05:36;67.60;;;38.70;;
57790;SDS011;43621;51.798;21.588;2023-01-09T15:09:42;96.50;;;57.50;;
57790;SDS011;43621;51.798;21.588;2023-01-09T15:13:48;64.20;;;37.00;;
57790;SDS011;43621;51.798;21.588;2023-01-09T15:22:04;129.70;;;66.50;;
57790;SDS011;43621;51.798;21.588;2023-01-09T15:26:27;92.60;;;43.70;;
57790;SDS011;43621;51.798;21.588;2023-01-09T15:30:31;109.10;;;53.10;;
57790;SDS011;43621;51.798;21.588;2023-01-09T15:34:35;87.50;;;46.90;;
57790;SDS011;43621;51.798;21.588;2023-01-09T15:38:37;120.60;;;62.60;;
57790;SDS011;43621;51.798;21.588;2023-01-09T15:42:41;162.60;;;79.60;;
57790;SDS011;43621;51.798;21.588;2023-01-09T15:47:02;138.40;;;62.30;;
57790;SDS011;43621;51.798;21.588;2023-01-09T15:51:08;138.70;;;67.90;;
57790;SDS011;43621;51.798;21.588;2023-01-09T15:55:23;176.70;;;85.80;;
57790;SDS011;43621;51.798;21.588;2023-01-09T15:59:38;161.50;;;77.70;;
57790;SDS011;43621;51.798;21.588;2023-01-09T16:03:40;102.00;;;54.60;;
57790;SDS011;43621;51.798;21.588;2023-01-09T16:07:48;157.50;;;86.80;;
57790;SDS011;43621;51.798;21.588;2023-01-09T16:11:52;124.30;;;69.90;;
57790;SDS011;43621;51.798;21.588;2023-01-09T16:15:58;84.30;;;48.00;;
57790;SDS011;43621;51.798;21.588;2023-01-09T16:20:21;91.90;;;57.60;;
57790;SDS011;43621;51.798;21.588;2023-01-09T16:24:27;81.20;;;45.00;;
57790;SDS011;43621;51.798;21.588;2023-01-09T16:28:40;93.70;;;52.00;;
57790;SDS011;43621;51.798;21.588;2023-01-09T16:32:46;166.70;;;93.20;;
57790;SDS011;43621;51.798;21.588;2023-01-09T16:36:51;77.50;;;41.20;;
57790;SDS011;43621;51.798;21.588;2023-01-09T16:41:03;72.20;;;42.00;;
57790;SDS011;43621;51.798;21.588;2023-01-09T16:45:30;64.60;;;36.60;;
57790;SDS011;43621;51.798;21.588;2023-01-09T16:49:35;56.50;;;32.10;;
57790;SDS011;43621;51.798;21.588;2023-01-09T16:53:38;55.60;;;33.90;;
57790;SDS011;43621;51.798;21.588;2023-01-09T16:57:44;51.70;;;29.60;;
57790;SDS011;43621;51.798;21.588;2023-01-09T17:01:46;67.30;;;38.00;;
57790;SDS011;43621;51.798;21.588;2023-01-09T17:05:49;65.40;;;38.30;;
57790;SDS011;43621;51.798;21.588;2023-01-09T17:10:01;72.30;;;40.80;;
57790;SDS011;43621;51.798;21.588;2023-01-09T17:14:11;102.20;;;56.90;;
57790;SDS011;43621;51.798;21.588;2023-01-09T17:18:15;90.40;;;51.40;;
57790;SDS011;43621;51.798;21.588;2023-01-09T17:22:19;72.00;;;40.60;;
57790;SDS011;43621;51.798;21.588;2023-01-09T17:26:23;64.90;;;38.80;;
57790;SDS011;43621;51.798;21.588;2023-01-09T17:30:45;74.40;;;41.80;;
57790;SDS011;43621;51.798;21.588;2023-01-09T17:34:46;56.20;;;31.70;;
57790;SDS011;43621;51.798;21.588;2023-01-09T17:38:48;89.30;;;43.10;;
57790;SDS011;43621;51.798;21.588;2023-01-09T17:42:55;134.80;;;63.90;;
57790;SDS011;43621;51.798;21.588;2023-01-09T17:47:00;69.50;;;35.40;;
57790;SDS011;43621;51.798;21.588;2023-01-09T17:51:02;58.10;;;31.20;;
57790;SDS011;43621;51.798;21.588;2023-01-09T17:55:04;55.00;;;32.20;;
57790;SDS011;43621;51.798;21.588;2023-01-09T17:59:09;79.20;;;37.50;;
57790;SDS011;43621;51.798;21.588;2023-01-09T18:03:12;124.10;;;52.40;;
57790;SDS011;43621;51.798;21.588;2023-01-09T18:07:14;122.40;;;50.10;;
57790;SDS011;43621;51.798;21.588;2023-01-09T18:11:18;136.60;;;53.70;;
57790;SDS011;43621;51.798;21.588;2023-01-09T18:15:21;164.20;;;59.30;;
57790;SDS011;43621;51.798;21.588;2023-01-09T18:19:24;79.30;;;38.70;;
57790;SDS011;43621;51.798;21.588;2023-01-09T18:23:26;67.90;;;35.90;;
57790;SDS011;43621;51.798;21.588;2023-01-09T18:27:28;66.20;;;38.50;;
57790;SDS011;43621;51.798;21.588;2023-01-09T18:31:30;71.60;;;39.20;;
57790;SDS011;43621;51.798;21.588;2023-01-09T18:35:32;67.30;;;39.70;;
57790;SDS011;43621;51.798;21.588;2023-01-09T18:39:34;61.50;;;38.00;;
57790;SDS011;43621;51.798;21.588;2023-01-09T18:43:36;93.80;;;48.80;;
57790;SDS011;43621;51.798;21.588;2023-01-09T18:47:38;83.80;;;44.30;;
57790;SDS011;43621;51.798;21.588;2023-01-09T18:51:40;121.70;;;59.80;;
57790;SDS011;43621;51.798;21.588;2023-01-09T18:55:43;99.80;;;51.90;;
57790;SDS011;43621;51.798;21.588;2023-01-09T18:59:45;62.30;;;38.20;;
57790;SDS011;43621;51.798;21.588;2023-01-09T19:03:47;48.50;;;30.40;;
57790;SDS011;43621;51.798;21.588;2023-01-09T19:07:49;46.60;;;28.70;;
57790;SDS011;43621;51.798;21.588;2023-01-09T19:11:51;42.70;;;26.60;;
57790;SDS011;43621;51.798;21.588;2023-01-09T19:15:53;46.50;;;29.90;;
57790;SDS011;43621;51.798;21.588;2023-01-09T19:19:56;54.70;;;33.20;;
57790;SDS011;43621;51.798;21.588;2023-01-09T19:23:58;55.30;;;33.00;;
57790;SDS011;43621;51.798;21.588;2023-01-09T19:28:00;48.30;;;29.30;;
57790;SDS011;43621;51.798;21.588;2023-01-09T19:32:02;52.50;;;31.00;;
57790;SDS011;43621;51.798;21.588;2023-01-09T19:36:08;56.20;;;35.40;;
57790;SDS011;43621;51.798;21.588;2023-01-09T19:40:11;50.30;;;31.00;;
57790;SDS011;43621;51.798;21.588;2023-01-09T19:44:13;54.70;;;32.30;;
57790;SDS011;43621;51.798;21.588;2023-01-09T19:48:15;44.10;;;24.70;;
57790;SDS011;43621;51.798;21.588;2023-01-09T19:52:17;32.70;;;21.00;;
57790;SDS011;43621;51.798;21.588;2023-01-09T19:56:22;46.90;;;28.00;;
57790;SDS011;43621;51.798;21.588;2023-01-09T20:00:25;43.00;;;28.00;;
57790;SDS011;43621;51.798;21.588;2023-01-09T20:04:27;36.80;;;21.90;;
57790;SDS011;43621;51.798;21.588;2023-01-09T20:08:30;34.80;;;21.90;;
57790;SDS011;43621;51.798;21.588;2023-01-09T20:12:32;34.80;;;20.80;;
57790;SDS011;43621;51.798;21.588;2023-01-09T20:16:34;35.40;;;23.00;;
57790;SDS011;43621;51.798;21.588;2023-01-09T20:20:36;30.80;;;18.60;;
57790;SDS011;43621;51.798;21.588;2023-01-09T20:24:38;36.60;;;22.30;;
57790;SDS011;43621;51.798;21.588;2023-01-09T20:28:40;40.00;;;23.00;;
57790;SDS011;43621;51.798;21.588;2023-01-09T20:32:42;37.80;;;23.40;;
57790;SDS011;43621;51.798;21.588;2023-01-09T20:36:45;32.70;;;20.70;;
57790;SDS011;43621;51.798;21.588;2023-01-09T20:40:47;39.20;;;25.10;;
57790;SDS011;43621;51.798;21.588;2023-01-09T20:44:49;46.30;;;27.70;;
57790;SDS011;43621;51.798;21.588;2023-01-09T20:48:53;38.90;;;25.20;;
57790;SDS011;43621;51.798;21.588;2023-01-09T20:52:56;39.60;;;23.70;;
57790;SDS011;43621;51.798;21.588;2023-01-09T20:57:00;38.40;;;24.30;;
57790;SDS011;43621;51.798;21.588;2023-01-09T21:01:06;39.30;;;23.40;;
57790;SDS011;43621;51.798;21.588;2023-01-09T21:05:10;36.20;;;21.80;;
57790;SDS011;43621;51.798;21.588;2023-01-09T21:09:11;37.30;;;24.20;;
57790;SDS011;43621;51.798;21.588;2023-01-09T21:13:13;45.70;;;25.60;;
57790;SDS011;43621;51.798;21.588;2023-01-09T21:17:15;39.10;;;24.60;;
57790;SDS011;43621;51.798;21.588;2023-01-09T21:21:19;44.50;;;25.30;;
57790;SDS011;43621;51.798;21.588;2023-01-09T21:25:23;38.10;;;23.80;;
57790;SDS011;43621;51.798;21.588;2023-01-09T21:29:25;40.20;;;25.20;;
57790;SDS011;43621;51.798;21.588;2023-01-09T21:33:26;39.10;;;23.80;;
57790;SDS011;43621;51.798;21.588;2023-01-09T21:37:29;41.00;;;25.80;;
57790;SDS011;43621;51.798;21.588;2023-01-09T21:41:32;36.00;;;23.80;;
57790;SDS011;43621;51.798;21.588;2023-01-09T21:45:53;36.30;;;23.20;;
57790;SDS011;43621;51.798;21.588;2023-01-09T21:50:13;37.50;;;24.40;;
57790;SDS011;43621;51.798;21.588;2023-01-09T21:54:16;37.20;;;24.30;;
57790;SDS011;43621;51.798;21.588;2023-01-09T21:58:17;41.80;;;26.20;;
57790;SDS011;43621;51.798;21.588;2023-01-09T22:02:19;38.40;;;25.80;;
57790;SDS011;43621;51.798;21.588;2023-01-09T22:06:22;40.10;;;23.80;;
57790;SDS011;43621;51.798;21.588;2023-01-09T22:10:24;35.40;;;21.80;;
57790;SDS011;43621;51.798;21.588;2023-01-09T22:14:26;32.30;;;20.50;;
57790;SDS011;43621;51.798;21.588;2023-01-09T22:18:28;36.20;;;22.50;;
57790;SDS011;43621;51.798;21.588;2023-01-09T22:22:30;32.90;;;20.60;;
57790;SDS011;43621;51.798;21.588;2023-01-09T22:26:34;38.20;;;22.80;;
57790;SDS011;43621;51.798;21.588;2023-01-09T22:30:39;38.40;;;21.10;;
57790;SDS011;43621;51.798;21.588;2023-01-09T22:34:42;35.20;;;21.60;;
57790;SDS011;43621;51.798;21.588;2023-01-09T22:38:44;37.10;;;20.80;;
57790;SDS011;43621;51.798;21.588;2023-01-09T22:42:53;31.30;;;18.60;;
57790;SDS011;43621;51.798;21.588;2023-01-09T22:46:55;32.70;;;20.20;;
57790;SDS011;43621;51.798;21.588;2023-01-09T22:51:06;31.00;;;18.10;;
57790;SDS011;43621;51.798;21.588;2023-01-09T22:55:08;28.90;;;18.20;;
57790;SDS011;43621;51.798;21.588;2023-01-09T22:59:11;29.20;;;17.90;;
57790;SDS011;43621;51.798;21.588;2023-01-09T23:03:15;27.80;;;17.20;;
57790;SDS011;43621;51.798;21.588;2023-01-09T23:07:20;36.80;;;19.30;;
57790;SDS011;43621;51.798;21.588;2023-01-09T23:11:25;32.70;;;19.30;;
57790;SDS011;43621;51.798;21.588;2023-01-09T23:15:47;27.60;;;17.50;;
57790;SDS011;43621;51.798;21.588;2023-01-09T23:19:49;30.30;;;17.90;;
57790;SDS011;43621;51.798;21.588;2023-01-09T23:23:51;31.20;;;17.70;;
57790;SDS011;43621;51.798;21.588;2023-01-09T23:27:53;33.20;;;19.70;;
57790;SDS011;43621;51.798;21.588;2023-01-09T23:31:55;32.80;;;19.40;;
57790;SDS011;43621;51.798;21.588;2023-01-09T23:35:58;32.50;;;18.40;;
57790;SDS011;43621;51.798;21.588;2023-01-09T23:40:00;33.60;;;18.50;;
57790;SDS011;43621;51.798;21.588;2023-01-09T23:44:02;32.60;;;18.80;;
57790;SDS011;43621;51.798;21.588;2023-01-09T23:48:05;36.20;;;19.90;;
57790;SDS011;43621;51.798;21.588;2023-01-09T23:52:08;32.50;;;19.20;;
57790;SDS011;43621;51.798;21.588;2023-01-09T23:56:10;34.00;;;19.20;;
